createdAt,value
2022-10-14T00:00:19.635Z,14.48
2022-10-14T00:02:50.167Z,14.50
2022-10-14T00:05:20.467Z,14.53
2022-10-14T00:07:50.608Z,14.55
2022-10-14T00:10:20.908Z,14.50
2022-10-14T00:12:51.589Z,14.51
2022-10-14T00:15:24.477Z,14.42
2022-10-14T00:17:54.694Z,14.40
2022-10-14T00:20:24.851Z,14.43
2022-10-14T00:22:55.241Z,14.46
2022-10-14T00:25:26.550Z,14.48
2022-10-14T00:27:57.145Z,14.50
2022-10-14T00:30:29.996Z,14.53
2022-10-14T00:33:03.059Z,14.56
2022-10-14T00:35:33.772Z,14.54
2022-10-14T00:38:03.993Z,14.57
2022-10-14T00:40:34.211Z,14.57
2022-10-14T00:43:05.763Z,14.61
2022-10-14T00:45:38.529Z,14.66
2022-10-14T00:48:09.651Z,14.70
2022-10-14T00:50:41.843Z,14.73
2022-10-14T00:53:16.115Z,14.75
2022-10-14T00:55:46.488Z,14.74
2022-10-14T00:58:16.739Z,14.72
2022-10-14T01:00:49.604Z,14.75
2022-10-14T01:03:23.670Z,14.83
2022-10-14T01:06:07.684Z,14.81
2022-10-14T01:08:47.683Z,14.79
2022-10-14T01:11:26.163Z,14.82
2022-10-14T01:14:07.737Z,14.87
2022-10-14T01:16:51.868Z,14.87
2022-10-14T01:20:05.725Z,14.85
2022-10-14T01:22:41.691Z,14.88
2022-10-14T01:25:23.139Z,14.84
2022-10-14T01:28:12.543Z,14.83
2022-10-14T01:30:49.906Z,14.80
2022-10-14T01:33:26.074Z,14.78
2022-10-14T01:36:08.959Z,14.77
2022-10-14T01:38:44.581Z,14.72
2022-10-14T01:41:23.482Z,14.77
2022-10-14T01:43:55.675Z,14.78
2022-10-14T01:46:30.041Z,14.78
2022-10-14T01:49:08.859Z,14.74
2022-10-14T01:51:48.511Z,14.77
2022-10-14T01:54:23.966Z,14.80
2022-10-14T01:56:57.325Z,14.79
2022-10-14T01:59:29.394Z,14.87
2022-10-14T02:02:02.616Z,14.84
2022-10-14T02:04:32.874Z,14.84
2022-10-14T02:07:10.031Z,14.91
2022-10-14T02:09:50.117Z,14.82
2022-10-14T02:12:36.053Z,14.78
2022-10-14T02:15:18.124Z,14.72
2022-10-14T02:17:59.609Z,14.73
2022-10-14T02:20:37.553Z,14.73
2022-10-14T02:23:17.245Z,14.69
2022-10-14T02:25:50.674Z,14.72
2022-10-14T02:28:25.616Z,14.82
2022-10-14T02:31:00.908Z,14.84
2022-10-14T02:33:39.591Z,14.84
2022-10-14T02:36:13.718Z,14.88
2022-10-14T02:38:45.404Z,14.93
2022-10-14T02:41:21.347Z,14.96
2022-10-14T02:43:51.918Z,14.94
2022-10-14T02:46:24.361Z,14.93
2022-10-14T02:48:57.166Z,14.90
2022-10-14T02:51:27.374Z,14.88
2022-10-14T02:53:57.681Z,14.87
2022-10-14T02:56:29.780Z,14.82
2022-10-14T02:59:03.486Z,14.81
2022-10-14T03:01:37.599Z,14.77
2022-10-14T03:04:12.400Z,14.72
2022-10-14T03:06:43.170Z,14.73
2022-10-14T03:09:13.216Z,14.70
2022-10-14T03:11:44.517Z,14.69
2022-10-14T03:14:19.354Z,14.68
2022-10-14T03:16:50.048Z,14.67
2022-10-14T03:19:27.576Z,14.67
2022-10-14T03:21:59.707Z,14.62
2022-10-14T03:24:30.494Z,14.60
2022-10-14T03:27:20.009Z,14.56
2022-10-14T03:29:54.496Z,14.46
2022-10-14T03:32:27.227Z,14.41
2022-10-14T03:35:20.008Z,14.35
2022-10-14T03:37:53.700Z,14.34
2022-10-14T03:40:28.042Z,14.35
2022-10-14T03:43:02.232Z,14.34
2022-10-14T03:45:40.217Z,14.39
2022-10-14T03:48:12.277Z,14.40
2022-10-14T03:50:46.188Z,14.44
2022-10-14T03:53:16.500Z,14.38
2022-10-14T03:55:47.487Z,14.37
2022-10-14T03:58:17.742Z,14.38
2022-10-14T04:00:55.457Z,14.39
2022-10-14T04:03:42.934Z,14.37
2022-10-14T04:06:16.389Z,14.35
2022-10-14T04:08:47.438Z,14.33
2022-10-14T04:11:29.535Z,14.35
2022-10-14T04:14:06.300Z,14.36
2022-10-14T04:16:43.990Z,14.32
2022-10-14T04:19:19.213Z,14.32
2022-10-14T04:21:52.303Z,14.25
2022-10-14T04:24:25.291Z,14.17
2022-10-14T04:27:00.545Z,14.12
2022-10-14T04:29:43.122Z,14.12
2022-10-14T04:32:22.178Z,14.18
2022-10-14T04:34:52.586Z,14.20
2022-10-14T04:37:27.376Z,14.20
2022-10-14T04:40:03.881Z,14.31
2022-10-14T04:42:35.780Z,14.28
2022-10-14T04:45:10.724Z,14.29
2022-10-14T04:47:49.439Z,14.32
2022-10-14T04:50:23.181Z,14.28
2022-10-14T04:53:30.180Z,14.24
2022-10-14T04:56:19.360Z,14.23
2022-10-14T04:58:58.551Z,14.24
2022-10-14T05:01:43.003Z,14.30
2022-10-14T05:04:13.440Z,14.29
2022-10-14T05:06:45.644Z,14.19
2022-10-14T05:09:21.061Z,14.19
2022-10-14T05:11:51.307Z,14.22
2022-10-14T05:14:25.991Z,14.15
2022-10-14T05:17:08.727Z,14.09
2022-10-14T05:19:39.351Z,14.04
2022-10-14T05:22:09.640Z,14.10
2022-10-14T05:24:47.589Z,14.03
2022-10-14T05:27:18.120Z,13.98
2022-10-14T05:29:49.038Z,14.02
2022-10-14T05:32:20.220Z,14.10
2022-10-14T05:34:53.422Z,14.22
2022-10-14T05:37:32.860Z,14.22
2022-10-14T05:40:07.036Z,14.21
2022-10-14T05:42:39.584Z,14.17
2022-10-14T05:45:11.396Z,14.13
2022-10-14T05:47:48.415Z,14.23
2022-10-14T05:50:22.012Z,14.32
2022-10-14T05:52:52.670Z,14.39
2022-10-14T05:55:33.061Z,14.47
2022-10-14T05:58:06.121Z,14.53
2022-10-14T06:00:41.280Z,14.57
2022-10-14T06:03:16.440Z,14.57
2022-10-14T06:05:48.330Z,14.59
2022-10-14T06:08:18.505Z,14.60
2022-10-14T06:10:51.361Z,14.62
2022-10-14T06:13:22.085Z,14.65
2022-10-14T06:15:52.243Z,14.65
2022-10-14T06:18:22.481Z,14.68
2022-10-14T06:20:56.366Z,14.72
2022-10-14T06:23:27.326Z,14.72
2022-10-14T06:26:00.204Z,14.78
2022-10-14T06:28:30.460Z,14.81
2022-10-14T06:31:00.733Z,14.86
2022-10-14T06:33:32.725Z,14.94
2022-10-14T06:36:05.654Z,15.06
2022-10-14T06:38:36.236Z,15.15
2022-10-14T06:41:10.370Z,15.29
2022-10-14T06:43:40.573Z,15.36
2022-10-14T06:46:10.814Z,15.42
2022-10-14T06:48:40.880Z,15.54
2022-10-14T06:51:11.958Z,15.64
2022-10-14T06:53:42.087Z,15.72
2022-10-14T06:56:15.282Z,15.80
2022-10-14T06:58:45.450Z,15.89
2022-10-14T07:01:15.763Z,15.95
2022-10-14T07:03:45.971Z,16.02
2022-10-14T07:06:16.132Z,16.03
2022-10-14T07:08:46.243Z,16.08
2022-10-14T07:11:18.958Z,16.01
2022-10-14T07:13:49.085Z,15.93
2022-10-14T07:16:19.195Z,15.92
2022-10-14T07:18:49.336Z,15.90
2022-10-14T07:21:19.466Z,15.88
2022-10-14T07:23:49.561Z,15.82
2022-10-14T07:26:22.319Z,15.74
2022-10-14T07:28:52.651Z,15.72
2022-10-14T07:31:22.865Z,15.69
2022-10-14T07:33:53.036Z,15.74
2022-10-14T07:36:23.224Z,15.72
2022-10-14T07:38:53.754Z,15.74
2022-10-14T07:41:28.223Z,15.74
2022-10-14T07:44:06.543Z,15.72
2022-10-14T07:46:40.988Z,15.81
2022-10-14T07:49:15.648Z,15.84
2022-10-14T07:51:46.930Z,15.97
2022-10-14T07:54:20.341Z,15.88
2022-10-14T07:56:53.723Z,15.73
2022-10-14T07:59:24.397Z,15.65
2022-10-14T08:01:56.868Z,15.51
2022-10-14T08:04:28.219Z,15.34
2022-10-14T08:06:58.425Z,15.31
2022-10-14T08:09:28.608Z,15.22
2022-10-14T08:12:01.468Z,15.10
2022-10-14T08:14:31.757Z,14.94
2022-10-14T08:17:02.067Z,15.05
2022-10-14T08:19:32.447Z,15.02
2022-10-14T08:22:02.599Z,14.89
2022-10-14T08:24:32.720Z,14.92
2022-10-14T08:27:07.246Z,14.80
2022-10-14T08:29:37.421Z,15.00
2022-10-14T08:32:08.130Z,15.14
2022-10-14T08:34:38.334Z,15.23
2022-10-14T08:37:08.620Z,15.41
2022-10-14T08:39:38.816Z,15.61
2022-10-14T08:42:41.056Z,15.54
2022-10-14T08:45:20.220Z,15.38
2022-10-14T08:47:50.687Z,15.43
2022-10-14T08:50:30.113Z,15.48
2022-10-14T08:53:07.386Z,15.56
2022-10-14T08:55:42.379Z,15.48
2022-10-14T08:58:22.426Z,15.35
2022-10-14T09:00:55.826Z,15.18
2022-10-14T09:03:33.522Z,15.34
2022-10-14T09:06:06.579Z,15.46
2022-10-14T09:08:42.346Z,15.66
2022-10-14T09:11:18.186Z,15.71
2022-10-14T09:13:53.824Z,15.84
2022-10-14T09:16:27.612Z,15.91
2022-10-14T09:19:00.747Z,15.94
2022-10-14T09:21:52.961Z,16.02
2022-10-14T09:24:26.996Z,16.43
2022-10-14T09:27:00.633Z,16.73
2022-10-14T09:29:40.379Z,17.07
2022-10-14T09:32:15.257Z,17.05
2022-10-14T09:34:50.945Z,17.21
2022-10-14T09:37:30.898Z,17.07
2022-10-14T09:40:07.086Z,17.16
2022-10-14T09:42:49.045Z,17.50
2022-10-14T09:45:24.653Z,17.71
2022-10-14T09:47:59.898Z,17.84
2022-10-14T09:50:38.472Z,17.94
2022-10-14T09:53:17.935Z,18.21
2022-10-14T09:55:52.863Z,18.31
2022-10-14T09:58:34.969Z,18.28
2022-10-14T10:01:14.577Z,18.53
2022-10-14T10:03:46.073Z,18.44
2022-10-14T10:06:20.382Z,18.46
2022-10-14T10:09:01.351Z,18.40
2022-10-14T10:11:37.465Z,18.56
2022-10-14T10:14:21.337Z,18.66
2022-10-14T10:17:14.788Z,18.26
2022-10-14T10:19:46.525Z,18.10
2022-10-14T10:22:26.684Z,18.01
2022-10-14T10:25:36.517Z,17.54
2022-10-14T10:28:21.721Z,17.20
2022-10-14T10:31:12.748Z,17.03
2022-10-14T10:33:50.529Z,17.17
2022-10-14T10:36:29.175Z,17.09
2022-10-14T10:39:02.804Z,17.10
2022-10-14T10:42:01.433Z,17.09
2022-10-14T10:44:54.173Z,17.08
2022-10-14T10:47:36.010Z,17.03
2022-10-14T10:50:32.307Z,17.06
2022-10-14T10:53:42.572Z,17.00
2022-10-14T10:56:22.758Z,17.17
2022-10-14T10:59:14.594Z,17.43
2022-10-14T11:01:53.530Z,17.52
2022-10-14T11:04:34.002Z,17.75
2022-10-14T11:07:30.959Z,18.16
2022-10-14T11:10:26.033Z,18.34
2022-10-14T11:13:04.333Z,18.19
2022-10-14T11:15:48.357Z,18.06
2022-10-14T11:18:34.038Z,18.04
2022-10-14T11:21:15.278Z,17.87
2022-10-14T11:24:06.420Z,17.89
2022-10-14T11:26:56.523Z,18.25
2022-10-14T11:29:49.320Z,18.57
2022-10-14T11:32:27.180Z,18.80
2022-10-14T11:35:13.891Z,18.91
2022-10-14T11:38:03.271Z,19.13
2022-10-14T11:40:44.315Z,19.44
2022-10-14T11:43:26.777Z,19.54
2022-10-14T11:46:00.792Z,19.57
2022-10-14T11:48:38.831Z,19.75
2022-10-14T11:51:17.869Z,19.50
2022-10-14T11:54:01.637Z,19.97
2022-10-14T11:56:44.201Z,20.17
2022-10-14T11:59:40.219Z,20.70
2022-10-14T12:02:26.692Z,20.56
2022-10-14T12:05:05.810Z,20.27
2022-10-14T12:07:44.888Z,20.01
2022-10-14T12:10:27.539Z,19.81
2022-10-14T12:13:02.392Z,19.98
2022-10-14T12:15:32.865Z,19.73
2022-10-14T12:18:04.071Z,19.64
2022-10-14T12:20:44.706Z,19.51
2022-10-14T12:23:31.053Z,19.48
2022-10-14T12:26:09.476Z,19.57
2022-10-14T12:28:43.363Z,19.62
2022-10-14T12:31:25.999Z,19.60
2022-10-14T12:34:35.632Z,19.81
2022-10-14T12:37:54.467Z,19.99
2022-10-14T12:40:36.700Z,19.79
2022-10-14T12:43:26.413Z,19.46
2022-10-14T12:46:18.345Z,19.59
2022-10-14T12:48:52.152Z,19.79
2022-10-14T12:51:27.463Z,19.71
2022-10-14T12:54:08.376Z,19.65
2022-10-14T12:56:43.210Z,19.37
2022-10-14T12:59:26.599Z,19.14
2022-10-14T13:02:06.855Z,18.98
2022-10-14T13:04:37.380Z,18.76
2022-10-14T13:07:40.053Z,18.83
2022-10-14T13:10:48.084Z,18.74
2022-10-14T13:14:02.197Z,18.78
2022-10-14T13:17:29.150Z,18.99
2022-10-14T13:19:59.584Z,20.87
2022-10-14T13:22:45.683Z,21.85
2022-10-14T13:25:20.531Z,24.03
2022-10-14T13:28:24.209Z,26.03
2022-10-14T13:31:06.718Z,26.28
2022-10-14T13:33:46.352Z,24.80
2022-10-14T13:36:21.181Z,24.08
2022-10-14T13:38:58.486Z,23.53
2022-10-14T13:41:31.490Z,22.75
2022-10-14T13:44:03.466Z,22.51
2022-10-14T13:46:39.807Z,22.20
2022-10-14T13:49:20.491Z,21.59
2022-10-14T13:51:54.862Z,21.40
2022-10-14T13:54:27.960Z,21.23
2022-10-14T13:57:47.941Z,20.69
2022-10-14T14:02:53.362Z,20.48
2022-10-14T14:05:35.446Z,20.99
2022-10-14T14:08:36.853Z,21.01
2022-10-14T14:11:16.216Z,21.00
2022-10-14T14:13:59.912Z,21.05
2022-10-14T14:16:35.825Z,21.29
2022-10-14T14:19:09.315Z,21.26
2022-10-14T14:21:42.854Z,21.05
2022-10-14T14:24:29.527Z,21.02
2022-10-14T14:26:59.943Z,21.18
2022-10-14T14:29:34.379Z,21.34
2022-10-14T14:32:08.466Z,21.45
2022-10-14T14:34:40.959Z,21.36
2022-10-14T14:40:19.647Z,20.83
2022-10-14T14:42:53.523Z,20.61
2022-10-14T14:45:27.005Z,20.19
2022-10-14T14:48:00.342Z,19.80
2022-10-14T14:50:34.856Z,19.56
2022-10-14T14:53:22.818Z,19.35
2022-10-14T14:56:07.876Z,19.22
2022-10-14T14:58:49.412Z,19.22
2022-10-14T15:01:24.830Z,19.30
2022-10-14T15:04:11.993Z,19.48
2022-10-14T15:06:51.616Z,19.52
2022-10-14T15:09:36.612Z,19.50
2022-10-14T15:12:10.975Z,19.20
2022-10-14T15:14:48.608Z,19.03
2022-10-14T15:17:32.195Z,19.02
2022-10-14T15:20:29.888Z,18.95
2022-10-14T15:23:00.859Z,18.95
2022-10-14T15:25:35.794Z,18.77
2022-10-14T15:28:06.499Z,18.87
2022-10-14T15:30:54.073Z,18.84
2022-10-14T15:33:26.758Z,18.80
2022-10-14T15:36:00.012Z,18.79
2022-10-14T15:41:23.981Z,18.57
2022-10-14T15:43:54.238Z,18.45
2022-10-14T15:46:37.868Z,18.41
2022-10-14T15:49:25.764Z,18.34
2022-10-14T15:51:55.927Z,18.24
2022-10-14T15:54:27.767Z,18.16
2022-10-14T15:57:01.393Z,18.12
2022-10-14T15:59:31.614Z,18.06
2022-10-14T16:02:01.925Z,18.02
2022-10-14T16:04:33.622Z,17.97
2022-10-14T16:07:04.001Z,17.84
2022-10-14T16:09:34.245Z,17.75
2022-10-14T16:12:08.466Z,17.73
2022-10-14T16:14:38.698Z,17.75
2022-10-14T16:17:09.120Z,17.65
2022-10-14T16:19:39.397Z,17.62
2022-10-14T16:22:10.373Z,17.56
2022-10-14T16:24:41.638Z,17.45
2022-10-14T16:27:14.457Z,17.45
2022-10-14T16:29:44.781Z,17.40
2022-10-14T16:32:16.802Z,17.33
2022-10-14T16:34:46.972Z,17.35
2022-10-14T16:37:17.171Z,17.37
2022-10-14T16:39:48.172Z,17.29
2022-10-14T16:42:21.948Z,17.16
2022-10-14T16:44:52.142Z,17.18
2022-10-14T16:47:23.859Z,17.20
2022-10-14T16:49:57.189Z,17.20
2022-10-14T16:52:27.342Z,17.27
2022-10-14T16:54:57.541Z,17.23
2022-10-14T16:57:34.708Z,17.20
2022-10-14T17:00:05.578Z,17.11
2022-10-14T17:02:35.500Z,17.02
2022-10-14T17:05:05.657Z,17.01
2022-10-14T17:07:36.607Z,16.96
2022-10-14T17:10:08.013Z,16.99
2022-10-14T17:12:42.452Z,16.98
2022-10-14T17:15:14.118Z,16.98
2022-10-14T17:17:44.253Z,16.95
2022-10-14T17:20:14.426Z,17.02
2022-10-14T17:22:44.763Z,16.97
2022-10-14T17:25:15.390Z,16.96
2022-10-14T17:27:48.171Z,17.02
2022-10-14T17:30:18.695Z,17.03
2022-10-14T17:32:49.595Z,17.01
2022-10-14T17:35:19.863Z,17.02
2022-10-14T17:37:50.171Z,17.00
2022-10-14T17:40:20.544Z,16.96
2022-10-14T17:42:53.336Z,16.93
2022-10-14T17:45:25.439Z,16.86
2022-10-14T17:47:57.238Z,16.79
2022-10-14T17:50:28.832Z,16.84
2022-10-14T17:52:59.724Z,16.91
2022-10-14T17:55:29.590Z,16.88
2022-10-14T17:58:02.369Z,16.83
2022-10-14T18:00:32.535Z,16.85
2022-10-14T18:03:02.737Z,16.79
2022-10-14T18:05:32.864Z,16.77
2022-10-14T18:08:03.432Z,16.78
2022-10-14T18:10:33.836Z,16.77
2022-10-14T18:13:07.026Z,16.78
2022-10-14T18:15:37.267Z,16.74
2022-10-14T18:18:08.466Z,16.81
2022-10-14T18:20:39.726Z,16.79
2022-10-14T18:23:11.489Z,16.71
2022-10-14T18:25:41.783Z,16.71
2022-10-14T18:28:14.556Z,16.67
2022-10-14T18:30:44.760Z,16.70
2022-10-14T18:33:14.977Z,16.73
2022-10-14T18:35:48.579Z,16.72
2022-10-14T18:38:19.062Z,16.67
2022-10-14T18:40:49.372Z,16.69
2022-10-14T18:43:22.340Z,16.64
2022-10-14T18:45:52.747Z,16.68
2022-10-14T18:48:23.032Z,16.66
2022-10-14T18:51:00.357Z,16.58
2022-10-14T18:53:32.326Z,16.49
2022-10-14T18:56:08.766Z,16.58
2022-10-14T18:58:42.518Z,16.56
2022-10-14T19:01:15.357Z,16.53
2022-10-14T19:03:48.842Z,16.51
2022-10-14T19:06:19.195Z,16.50
2022-10-14T19:08:49.647Z,16.54
2022-10-14T19:11:22.342Z,16.53
2022-10-14T19:13:58.066Z,16.60
2022-10-14T19:16:31.037Z,16.61
2022-10-14T19:19:04.127Z,16.60
2022-10-14T19:21:34.686Z,16.61
2022-10-14T19:24:05.885Z,16.63
2022-10-14T19:26:40.002Z,16.67
2022-10-14T19:29:16.509Z,16.69
2022-10-14T19:31:47.309Z,16.75
2022-10-14T19:34:19.172Z,16.69
2022-10-14T19:36:49.413Z,16.71
2022-10-14T19:39:20.150Z,16.70
2022-10-14T19:41:50.428Z,16.72
2022-10-14T19:44:23.301Z,16.66
2022-10-14T19:46:53.461Z,16.62
2022-10-14T19:49:23.617Z,16.66
2022-10-14T19:51:54.021Z,16.69
2022-10-14T19:54:24.219Z,16.64
2022-10-14T19:56:54.377Z,16.55
2022-10-14T19:59:27.232Z,16.56
2022-10-14T20:01:57.400Z,16.59
2022-10-14T20:04:27.911Z,16.57
2022-10-14T20:06:58.124Z,16.51
2022-10-14T20:09:28.995Z,16.50
2022-10-14T20:11:59.134Z,16.54
2022-10-14T20:14:32.004Z,16.52
2022-10-14T20:17:02.144Z,16.46
2022-10-14T20:19:32.410Z,16.56
2022-10-14T20:22:02.746Z,16.53
2022-10-14T20:24:32.955Z,16.48
2022-10-14T20:27:04.600Z,16.39
2022-10-14T20:29:41.341Z,16.41
2022-10-14T20:32:12.182Z,16.40
2022-10-14T20:34:42.105Z,16.43
2022-10-14T20:37:12.301Z,16.42
2022-10-14T20:39:42.511Z,16.45
2022-10-14T20:42:12.619Z,16.39
2022-10-14T20:44:45.314Z,16.35
2022-10-14T20:47:15.515Z,16.41
2022-10-14T20:49:45.790Z,16.41
2022-10-14T20:52:15.920Z,16.40
2022-10-14T20:54:46.088Z,16.36
2022-10-14T20:57:16.455Z,16.42
2022-10-14T20:59:49.253Z,16.37
2022-10-14T21:02:22.581Z,16.36
2022-10-14T21:04:54.560Z,16.46
2022-10-14T21:07:25.197Z,16.44
2022-10-14T21:09:55.653Z,16.39
2022-10-14T21:12:26.334Z,16.32
2022-10-14T21:14:59.073Z,16.31
2022-10-14T21:17:29.230Z,16.29
2022-10-14T21:19:59.376Z,16.29
2022-10-14T21:22:29.580Z,16.25
2022-10-14T21:24:59.916Z,16.22
2022-10-14T21:27:30.030Z,16.23
2022-10-14T21:30:02.790Z,16.19
2022-10-14T21:32:32.974Z,16.22
2022-10-14T21:35:03.188Z,16.20
2022-10-14T21:37:33.285Z,16.14
2022-10-14T21:40:03.369Z,16.12
2022-10-14T21:42:33.450Z,16.04
2022-10-14T21:45:06.421Z,15.95
2022-10-14T21:47:36.578Z,15.95
2022-10-14T21:50:07.339Z,15.92
2022-10-14T21:52:37.828Z,15.93
2022-10-14T21:55:09.596Z,15.90
2022-10-14T21:57:39.723Z,15.87
2022-10-14T22:00:14.827Z,15.85
2022-10-14T22:02:45.037Z,15.79
2022-10-14T22:05:15.267Z,15.79
2022-10-14T22:07:45.349Z,15.79
2022-10-14T22:10:27.810Z,15.85
2022-10-14T22:12:59.531Z,15.77
2022-10-14T22:15:32.471Z,15.76
2022-10-14T22:18:02.705Z,15.75
2022-10-14T22:20:32.935Z,15.74
2022-10-14T22:23:03.236Z,15.73
2022-10-14T22:25:35.889Z,15.74
2022-10-14T22:28:06.985Z,15.78
2022-10-14T22:30:40.240Z,15.79
2022-10-14T22:33:10.551Z,15.75
2022-10-14T22:35:40.834Z,15.72
2022-10-14T22:38:11.338Z,15.67
2022-10-14T22:40:41.559Z,15.68
2022-10-14T22:43:11.790Z,15.73
2022-10-14T22:45:47.624Z,15.76
2022-10-14T22:48:17.810Z,15.76
2022-10-14T22:50:47.977Z,15.79
2022-10-14T22:53:18.231Z,15.83
2022-10-14T22:55:54.355Z,15.87
2022-10-14T22:58:24.889Z,15.93
2022-10-14T23:00:57.818Z,15.99
2022-10-14T23:03:28.988Z,15.98
2022-10-14T23:06:03.970Z,15.97
2022-10-14T23:08:35.377Z,15.94
2022-10-14T23:11:07.098Z,15.90
2022-10-14T23:13:37.787Z,15.89
2022-10-14T23:16:14.121Z,15.99
2022-10-14T23:18:45.768Z,15.95
2022-10-14T23:21:19.382Z,15.90
2022-10-14T23:23:51.634Z,15.88
2022-10-14T23:26:26.155Z,15.80
2022-10-14T23:28:58.170Z,15.76
2022-10-14T23:31:33.304Z,15.77
2022-10-14T23:34:05.778Z,15.84
2022-10-14T23:36:36.488Z,15.84
2022-10-14T23:39:07.941Z,15.86
2022-10-14T23:41:38.454Z,15.87
2022-10-14T23:44:08.644Z,15.85
2022-10-14T23:46:41.664Z,15.89
2022-10-14T23:49:25.653Z,15.91
2022-10-14T23:51:56.882Z,15.94
2022-10-14T23:54:27.221Z,15.98
2022-10-14T23:56:57.386Z,15.98
2022-10-14T23:59:27.460Z,15.97
